Cleveland, Ohio
Traffic Map
Current Weather Conditions
Cleveland, Ohio
Broken Clouds Light Rain
Broken Clouds

Feels Like: 5°
Wind Chill: Ceiling: 11000
Heat Index: Visibility: 10mi
Dew Point: Wind: 16mph
Humidity: 74% Direction: 110° (ESE)
Pressure: 29.82in Gusts: 24mph
Raw Report DataKBKL 301853Z 11014G21KT 10SM -RA FEW065 SCT080 BKN110 08/04 A2982 RMK AO2 LTG DSNT W SLP099 P0004 T00830039
Traffic Incident Summary
Active as of:
Severity:
Category:
InformationThere was an issue retrieving the traffic information for this location. Please try a different location or try again shortly.
Advertisements
Track Severe Weather on mobile